Terminal Aerodrome Forecast
Issued by NWS

Home | Current Version | Previous Version | Text Only | Print | Product List | Glossary On
Versions: 1 2 3 4 5 6 7 8 9 10 11 12 13 14 15 16 17 18 19 20 21 22 23 24 25 26 27 28 29
000
FTUS45 KPSR 292000 AAA
TAFPHX
TAF AMD
KPHX 292019Z 2920/3018 VRB05KT P6SM VCSH SCT070 BKN120
      TEMPO 2921/2924 -SHRA SCT070 BKN100
     FM300000 VRB04KT P6SM -SHRA FEW050 BKN080
      TEMPO 3004/3008 -RA SCT040 BKN060
     FM300800 10007KT P6SM -RA SCT025 OVC035
      TEMPO 3011/3015 5SM RA BR FEW015 BKN025 OVC030=

USA.gov is the U.S. government's official web portal to all federal, state and local government web resources and services.